Home > Products > Valid Products > TAF

000
FTUS45 KSLC 211137
TAFPVU
TAF
KPVU 211137Z 2112/2212 VRB05KT P6SM VCSH SCT040 BKN050
      TEMPO 2112/2116 6SM -RA SCT020 BKN030
     FM212100 29010KT P6SM VCSH SCT015 BKN035
      AMD LTD TO CLD VIS AND WIND=



000
FTUS45 KSLC 211137
TAFENV
TAF
KENV 211137Z 2112/2212 34008KT P6SM VCSH FEW040 BKN080
     FM211900 29014G24KT P6SM FEW080 BKN120
     FM220200 32016G28KT P6SM SCT120
      AMD LTD TO CLD VIS AND WIND=



000
FTUS45 KSLC 211137
TAFPVU
TAF
KPVU 211137Z 2112/2212 VRB05KT P6SM VCSH SCT040 BKN050
      TEMPO 2112/2116 6SM -RA SCT020 BKN030
     FM212100 29010KT P6SM VCSH SCT015 BKN035
      AMD LTD TO CLD VIS AND WIND=



000
FTUS45 KSLC 211137
TAFSLC
TAF
KSLC 211137Z 2112/2218 19010KT 6SM -SHRA SCT020 OVC030
      TEMPO 2112/2115 5SM RA SCT015 OVC025
     FM212300 30012G22KT P6SM VCSH SCT015 OVC035=



000
FTUS45 KSLC 211137
TAFBCE
TAF
KBCE 211137Z 2112/2212 29011KT P6SM SCT100
     FM211900 30014G24KT P6SM SCT040 BKN060
     FM220400 30020G30KT P6SM VCSH SCT030 BKN050=



000
FTUS45 KSLC 211137
TAFENV
TAF
KENV 211137Z 2112/2212 34008KT P6SM VCSH FEW040 BKN080
     FM211900 29014G24KT P6SM FEW080 BKN120
     FM220200 32016G28KT P6SM SCT120
      AMD LTD TO CLD VIS AND WIND=



000
FTUS45 KSLC 211137
TAFLGU
TAF
KLGU 211137Z 2112/2212 17014KT P6SM VCSH SCT015 BKN035
      TEMPO 2112/2116 17016G24KT 6SM RA SCT015 BKN025
     FM211600 20016G24KT P6SM VCSH SCT010 BKN035
     FM212000 31016G24KT P6SM VCSH SCT025 BKN040=



000
FTUS45 KSLC 211137
TAFBCE
TAF
KBCE 211137Z 2112/2212 29011KT P6SM SCT100
     FM211900 30014G24KT P6SM SCT040 BKN060
     FM220400 30020G30KT P6SM VCSH SCT030 BKN050=



000
FTUS45 KSLC 211137
TAFCDC
TAF
KCDC 211137Z 2112/2212 18006KT P6SM BKN060
     FM211800 22010G18KT P6SM BKN060
     FM220100 20010KT P6SM SCT060 BKN080=



000
FTUS45 KSLC 211137
TAFSLC
TAF
KSLC 211137Z 2112/2218 19010KT 6SM -SHRA SCT020 OVC030
      TEMPO 2112/2115 5SM RA SCT015 OVC025
     FM212300 30012G22KT P6SM VCSH SCT015 OVC035=



000
FTUS45 KSLC 211137
TAFLGU
TAF
KLGU 211137Z 2112/2212 17014KT P6SM VCSH SCT015 BKN035
      TEMPO 2112/2116 17016G24KT 6SM RA SCT015 BKN025
     FM211600 20016G24KT P6SM VCSH SCT010 BKN035
     FM212000 31016G24KT P6SM VCSH SCT025 BKN040=



000
FTUS45 KSLC 211137
TAFCDC
TAF
KCDC 211137Z 2112/2212 18006KT P6SM BKN060
     FM211800 22010G18KT P6SM BKN060
     FM220100 20010KT P6SM SCT060 BKN080=



000
FTUS45 KSLC 211137
TAFOGD
TAF
KOGD 211137Z 2112/2212 17010KT 6SM -SHRA SCT010 OVC015
      TEMPO 2112/2114 5SM RA BR OVC010
     FM211400 17013KT 6SM -SHRA SCT010 OVC030
     FM220300 32011G20KT P6SM VCSH SCT020 OVC040=



000
FTUS45 KSLC 211137
TAFOGD
TAF
KOGD 211137Z 2112/2212 17010KT 6SM -SHRA SCT010 OVC015
      TEMPO 2112/2114 5SM RA BR OVC010
     FM211400 17013KT 6SM -SHRA SCT010 OVC030
     FM220300 32011G20KT P6SM VCSH SCT020 OVC040=



000
FTUS45 KSLC 211137
TAFSGU
TAF
KSGU 211137Z 2112/2212 VRB04KT P6SM BKN100
      AMD LTD TO CLD VIS AND WIND=



000
FTUS45 KSLC 211137
TAFSGU
TAF
KSGU 211137Z 2112/2212 VRB04KT P6SM BKN100
      AMD LTD TO CLD VIS AND WIND=



000
FTUS45 KSLC 211001 AAB
TAFLGU
TAF AMD
KLGU 211001Z 2110/2206 16011KT P6SM VCSH SCT015 BKN035
      TEMPO 2110/2114 17016G24KT -RA BKN030
     FM211400 24011KT 6SM RA SCT010 BKN025
     FM212000 31012G20KT P6SM VCSH SCT025 BKN040=



000
FTUS45 KSLC 211001 AAB
TAFLGU
TAF AMD
KLGU 211001Z 2110/2206 16011KT P6SM VCSH SCT015 BKN035
      TEMPO 2110/2114 17016G24KT -RA BKN030
     FM211400 24011KT 6SM RA SCT010 BKN025
     FM212000 31012G20KT P6SM VCSH SCT025 BKN040=



000
FTUS45 KSLC 211001 AAB
TAFLGU
TAF AMD
KLGU 211001Z 2110/2206 16011KT P6SM VCSH SCT015 BKN035
      TEMPO 2110/2114 17016G24KT -RA BKN030
     FM211400 24011KT 6SM RA SCT010 BKN025
     FM212000 31012G20KT P6SM VCSH SCT025 BKN040=



000
FTUS45 KSLC 211001 AAB
TAFLGU
TAF AMD
KLGU 211001Z 2110/2206 16011KT P6SM VCSH SCT015 BKN035
      TEMPO 2110/2114 17016G24KT -RA BKN030
     FM211400 24011KT 6SM RA SCT010 BKN025
     FM212000 31012G20KT P6SM VCSH SCT025 BKN040=



000
FTUS45 KSLC 210947 AAA
TAFBCE
TAF AMD
KBCE 210947Z 2110/2206 29011KT P6SM SCT100
     FM211900 30010G18KT P6SM SCT040 BKN060=



000
FTUS45 KSLC 210947 AAA
TAFBCE
TAF AMD
KBCE 210947Z 2110/2206 29011KT P6SM SCT100
     FM211900 30010G18KT P6SM SCT040 BKN060=



000
FTUS45 KSLC 210947 AAA
TAFBCE
TAF AMD
KBCE 210947Z 2110/2206 29011KT P6SM SCT100
     FM211900 30010G18KT P6SM SCT040 BKN060=



000
FTUS45 KSLC 210947 AAA
TAFBCE
TAF AMD
KBCE 210947Z 2110/2206 29011KT P6SM SCT100
     FM211900 30010G18KT P6SM SCT040 BKN060=



000
FTUS45 KSLC 210859 AAA
TAFOGD
TAF AMD
KOGD 210859Z 2109/2206 17010KT P6SM -SHRA SCT010 OVC035
      TEMPO 2109/2113 OVC030
     FM211300 18013G20KT P6SM -SHRA SCT010 OVC030
     FM220200 31013G20KT P6SM VCSH SCT020 OVC040=



000
FTUS45 KSLC 210858 AAA
TAFLGU
TAF AMD
KLGU 210858Z 2109/2206 16011KT P6SM VCSH SCT015 BKN035
      TEMPO 2109/2113 -RA BKN030
     FM211400 24011KT 6SM RA SCT010 BKN025
     FM212000 31012G20KT P6SM VCSH SCT025 BKN040=



000
FTUS45 KSLC 210858 AAA
TAFLGU
TAF AMD
KLGU 210858Z 2109/2206 16011KT P6SM VCSH SCT015 BKN035
      TEMPO 2109/2113 -RA BKN030
     FM211400 24011KT 6SM RA SCT010 BKN025
     FM212000 31012G20KT P6SM VCSH SCT025 BKN040=



000
FTUS45 KSLC 210850 AAA
TAFSLC
TAF AMD
KSLC 210850Z 2109/2212 15010KT P6SM VCSH SCT040 BKN060
      TEMPO 2109/2112 6SM -RA SCT020 OVC030
     FM211200 16014KT 5SM -RA SCT020 OVC035
     FM212100 19014G24KT P6SM -RA SCT015 OVC030
     FM220300 29015G25KT P6SM VCSH SCT020 OVC040=



000
FTUS45 KSLC 210850 AAA
TAFSLC
TAF AMD
KSLC 210850Z 2109/2212 15010KT P6SM VCSH SCT040 BKN060
      TEMPO 2109/2112 6SM -RA SCT020 OVC030
     FM211200 16014KT 5SM -RA SCT020 OVC035
     FM212100 19014G24KT P6SM -RA SCT015 OVC030
     FM220300 29015G25KT P6SM VCSH SCT020 OVC040=



000
FTUS45 KSLC 210538
TAFLGU
TAF
KLGU 210538Z 2106/2206 15009KT P6SM VCSH SCT015 BKN035
      TEMPO 2106/2110 -RA BKN030
     FM211400 24011KT 6SM RA SCT010 BKN025
     FM212000 31012G20KT P6SM VCSH SCT025 BKN040=



000
FTUS45 KSLC 210538
TAFPVU
TAF
KPVU 210538Z 2106/2206 VRB05KT P6SM VCSH SCT040 OVC050
     FM211200 VRB05KT P6SM -RA SCT020 BKN040
     FM212100 22010KT 5SM -RA SCT015 BKN030
     FM220400 29010KT P6SM VCSH SCT020 BKN035
      AMD LTD TO CLD VIS AND WIND=



000
FTUS45 KSLC 210538
TAFENV
TAF
KENV 210538Z 2106/2206 VRB05KT P6SM VCSH FEW040 BKN060
      TEMPO 2106/2110 -SHRA FEW015 BKN040
     FM211200 32010KT P6SM VCSH FEW040 BKN080
     FM212000 29014G24KT P6SM FEW080 BKN120
      AMD LTD TO CLD VIS AND WIND=



000
FTUS45 KSLC 210538
TAFENV
TAF
KENV 210538Z 2106/2206 VRB05KT P6SM VCSH FEW040 BKN060
      TEMPO 2106/2110 -SHRA FEW015 BKN040
     FM211200 32010KT P6SM VCSH FEW040 BKN080
     FM212000 29014G24KT P6SM FEW080 BKN120
      AMD LTD TO CLD VIS AND WIND=



000
FTUS45 KSLC 210538
TAFSGU
TAF
KSGU 210538Z 2106/2206 VRB04KT P6SM BKN100
      AMD LTD TO CLD VIS AND WIND=



000
FTUS45 KSLC 210538
TAFLGU
TAF
KLGU 210538Z 2106/2206 15009KT P6SM VCSH SCT015 BKN035
      TEMPO 2106/2110 -RA BKN030
     FM211400 24011KT 6SM RA SCT010 BKN025
     FM212000 31012G20KT P6SM VCSH SCT025 BKN040=



000
FTUS45 KSLC 210538
TAFSLC
TAF
KSLC 210538Z 2106/2212 15010KT P6SM VCSH SCT050 BKN070
      TEMPO 2108/2112 6SM -RA SCT030 OVC040
     FM211200 16014G22KT 5SM -RA SCT020 OVC035
     FM212100 19014G24KT P6SM -RA SCT015 OVC030
     FM220300 29015G25KT P6SM VCSH SCT020 OVC040=



000
FTUS45 KSLC 210538
TAFOGD
TAF
KOGD 210538Z 2106/2206 17010KT P6SM -SHRA SCT010 OVC035
      TEMPO 2107/2111 OVC030
     FM211100 18013G20KT P6SM -SHRA SCT010 OVC030
     FM220200 31013G20KT P6SM VCSH SCT020 OVC040=



000
FTUS45 KSLC 210538
TAFBCE
TAF
KBCE 210538Z 2106/2206 27007KT P6SM BKN040
     FM211900 30010G18KT P6SM SCT040 BKN060=



000
FTUS45 KSLC 210538
TAFSGU
TAF
KSGU 210538Z 2106/2206 VRB04KT P6SM BKN100
      AMD LTD TO CLD VIS AND WIND=



000
FTUS45 KSLC 210538
TAFSLC
TAF
KSLC 210538Z 2106/2212 15010KT P6SM VCSH SCT050 BKN070
      TEMPO 2108/2112 6SM -RA SCT030 OVC040
     FM211200 16014G22KT 5SM -RA SCT020 OVC035
     FM212100 19014G24KT P6SM -RA SCT015 OVC030
     FM220300 29015G25KT P6SM VCSH SCT020 OVC040=



000
FTUS45 KSLC 210538
TAFPVU
TAF
KPVU 210538Z 2106/2206 VRB05KT P6SM VCSH SCT040 OVC050
     FM211200 VRB05KT P6SM -RA SCT020 BKN040
     FM212100 22010KT 5SM -RA SCT015 BKN030
     FM220400 29010KT P6SM VCSH SCT020 BKN035
      AMD LTD TO CLD VIS AND WIND=



000
FTUS45 KSLC 210538
TAFBCE
TAF
KBCE 210538Z 2106/2206 27007KT P6SM BKN040
     FM211900 30010G18KT P6SM SCT040 BKN060=



000
FTUS45 KSLC 210538
TAFCDC
TAF
KCDC 210538Z 2106/2206 19005KT P6SM OVC060
     FM211800 23010KT P6SM OVC060=



000
FTUS45 KSLC 210538
TAFOGD
TAF
KOGD 210538Z 2106/2206 17010KT P6SM -SHRA SCT010 OVC035
      TEMPO 2107/2111 OVC030
     FM211100 18013G20KT P6SM -SHRA SCT010 OVC030
     FM220200 31013G20KT P6SM VCSH SCT020 OVC040=



000
FTUS45 KSLC 210538
TAFCDC
TAF
KCDC 210538Z 2106/2206 19005KT P6SM OVC060
     FM211800 23010KT P6SM OVC060=



000
FTUS45 KSLC 210306 AAB
TAFSLC
TAF AMD
KSLC 210306Z 2103/2206 16007KT P6SM OVC070
     FM210500 15010KT P6SM -SHRA SCT020 BKN050
     FM211400 16014G22KT 5SM -RA SCT020 BKN040
     FM212100 22014G20KT 5SM -RA SCT015 BKN030=



000
FTUS45 KSLC 210306 AAB
TAFSLC
TAF AMD
KSLC 210306Z 2103/2206 16007KT P6SM OVC070
     FM210500 15010KT P6SM -SHRA SCT020 BKN050
     FM211400 16014G22KT 5SM -RA SCT020 BKN040
     FM212100 22014G20KT 5SM -RA SCT015 BKN030=



000
FTUS45 KSLC 202344
TAFOGD
TAF
KOGD 202344Z 2100/2124 14005KT P6SM VCSH SCT015 BKN035
     FM210400 17010KT P6SM -SHRA SCT010 OVC035
     FM211600 18013G20KT P6SM -SHRA SCT010 OVC030=



000
FTUS45 KSLC 202344
TAFSGU
TAF
KSGU 202344Z 2100/2124 VRB04KT P6SM OVC100
     FM210600 VRB04KT P6SM SCT100 BKN150
     FM211800 24006KT P6SM BKN100
      AMD LTD TO CLD VIS AND WIND=



000
FTUS45 KSLC 202344
TAFOGD
TAF
KOGD 202344Z 2100/2124 14005KT P6SM VCSH SCT015 BKN035
     FM210400 17010KT P6SM -SHRA SCT010 OVC035
     FM211600 18013G20KT P6SM -SHRA SCT010 OVC030=



000
FTUS45 KSLC 202344
TAFLGU
TAF
KLGU 202344Z 2100/2124 VRB03KT P6SM VCSH SCT025 BKN040
     FM210400 VRB04KT P6SM -SHRA SCT015 BKN030
     FM211200 24011KT 6SM RA SCT010 BKN025=



000
FTUS45 KSLC 202344
TAFSGU
TAF
KSGU 202344Z 2100/2124 VRB04KT P6SM OVC100
     FM210600 VRB04KT P6SM SCT100 BKN150
     FM211800 24006KT P6SM BKN100
      AMD LTD TO CLD VIS AND WIND=



000
FTUS45 KSLC 202344
TAFPVU
TAF
KPVU 202344Z 2100/2124 VRB03KT P6SM VCSH BKN045 OVC080
     FM210600 VRB05KT P6SM -SHRA SCT020 OVC040
     FM211200 16010KT P6SM -RA SCT020 BKN040
     FM212100 22010KT 5SM -RA SCT015 BKN030
      AMD LTD TO CLD VIS AND WIND=



000
FTUS45 KSLC 202344
TAFENV
TAF
KENV 202344Z 2100/2124 23006KT P6SM OVC050
     FM210600 29010KT P6SM -SHRA FEW015 BKN040
     FM211700 32008KT P6SM FEW040 BKN080
      AMD LTD TO CLD VIS AND WIND=



000
FTUS45 KSLC 202344
TAFENV
TAF
KENV 202344Z 2100/2124 23006KT P6SM OVC050
     FM210600 29010KT P6SM -SHRA FEW015 BKN040
     FM211700 32008KT P6SM FEW040 BKN080
      AMD LTD TO CLD VIS AND WIND=



000
FTUS45 KSLC 202344
TAFLGU
TAF
KLGU 202344Z 2100/2124 VRB03KT P6SM VCSH SCT025 BKN040
     FM210400 VRB04KT P6SM -SHRA SCT015 BKN030
     FM211200 24011KT 6SM RA SCT010 BKN025=



000
FTUS45 KSLC 202344
TAFCDC
TAF
KCDC 202344Z 2100/2124 22007KT P6SM OVC070
     FM210300 19005KT P6SM OVC070
     FM211800 23010KT P6SM OVC060=



000
FTUS45 KSLC 202344
TAFCDC
TAF
KCDC 202344Z 2100/2124 22007KT P6SM OVC070
     FM210300 19005KT P6SM OVC070
     FM211800 23010KT P6SM OVC060=



000
FTUS45 KSLC 202344
TAFPVU
TAF
KPVU 202344Z 2100/2124 VRB03KT P6SM VCSH BKN045 OVC080
     FM210600 VRB05KT P6SM -SHRA SCT020 OVC040
     FM211200 16010KT P6SM -RA SCT020 BKN040
     FM212100 22010KT 5SM -RA SCT015 BKN030
      AMD LTD TO CLD VIS AND WIND=



000
FTUS45 KSLC 202344
TAFSLC
TAF
KSLC 202344Z 2100/2206 19005KT P6SM BKN080
     FM210400 15010KT P6SM -SHRA SCT020 BKN050
     FM211400 16014G22KT 5SM -RA SCT020 BKN040
     FM212100 22014G20KT 5SM -RA SCT015 BKN030=



000
FTUS45 KSLC 202344
TAFBCE
TAF
KBCE 202344Z 2100/2124 16004KT P6SM SCT040 OVC050
     FM210600 27007KT P6SM SCT040 BKN070
     FM211900 25010G15KT P6SM SCT040 BKN060=



000
FTUS45 KSLC 202344
TAFSLC
TAF
KSLC 202344Z 2100/2206 19005KT P6SM BKN080
     FM210400 15010KT P6SM -SHRA SCT020 BKN050
     FM211400 16014G22KT 5SM -RA SCT020 BKN040
     FM212100 22014G20KT 5SM -RA SCT015 BKN030=



000
FTUS45 KSLC 202344
TAFBCE
TAF
KBCE 202344Z 2100/2124 16004KT P6SM SCT040 OVC050
     FM210600 27007KT P6SM SCT040 BKN070
     FM211900 25010G15KT P6SM SCT040 BKN060=



000
FTUS45 KSLC 202055 AAB
TAFSLC
TAF AMD
KSLC 202055Z 2021/2124 18004KT P6SM VCSH SCT015 BKN030
     FM202300 19005KT P6SM VCSH SCT023 BKN050
     FM210800 14012G18KT P6SM VCSH SCT020 BKN050
     FM211200 16014G22KT 6SM -RA SCT020 BKN040=



000
FTUS45 KSLC 202055 AAB
TAFSLC
TAF AMD
KSLC 202055Z 2021/2124 18004KT P6SM VCSH SCT015 BKN030
     FM202300 19005KT P6SM VCSH SCT023 BKN050
     FM210800 14012G18KT P6SM VCSH SCT020 BKN050
     FM211200 16014G22KT 6SM -RA SCT020 BKN040=



000
FTUS45 KSLC 201955 AAA
TAFSLC
TAF AMD
KSLC 201955Z 2020/2124 29004KT 4SM -RA BR BKN023 BKN040
      TEMPO 2020/2022 16007KT
     FM202200 19005KT P6SM VCSH SCT023 BKN050
     FM210800 14012G18KT P6SM VCSH SCT020 BKN050
     FM211200 16014G22KT 6SM -RA SCT020 BKN040=



000
FTUS45 KSLC 201734 CCA
TAFLGU
TAF COR
KLGU 201734Z 2018/2118 VRB03KT P6SM VCSH SCT025 BKN040
      TEMPO 2018/2022 -SHRA BKN025 OVC040
     FM202200 VRB04KT 6SM -SHRA SCT015 BKN030
     FM211200 24011KT 6SM -RASN SCT010 BKN025=



000
FTUS45 KSLC 201734 CCA
TAFLGU
TAF COR
KLGU 201734Z 2018/2118 VRB03KT P6SM VCSH SCT025 BKN040
      TEMPO 2018/2022 -SHRA BKN025 OVC040
     FM202200 VRB04KT 6SM -SHRA SCT015 BKN030
     FM211200 24011KT 6SM -RASN SCT010 BKN025=



000
FTUS45 KSLC 201731
TAFSLC
TAF
KSLC 201731Z 2018/2124 15006KT P6SM VCSH SCT040 BKN060
     FM202000 16007KT P6SM VCSH SCT030 BKN070
     FM210800 14012G18KT P6SM VCSH SCT020 BKN050
     FM211200 16014G22KT 6SM -RA SCT020 BKN040=



000
FTUS45 KSLC 201731
TAFLGU
TAF
KLGU 201731Z 2018/2118 VRB03KT P6SM VCSH SCT025 BKN040
      TEMPO 2020/2024 -SHRA BKN025 OVC040
     FM210000 VRB04KT 6SM -SHRA SCT015 BKN030
     FM211200 24011KT 6SM -RASN SCT010 BKN025=



000
FTUS45 KSLC 201731
TAFENV
TAF
KENV 201731Z 2018/2118 VRB04KT P6SM VCSH SCT050 BKN070
     FM210000 23006KT P6SM VCSH SCT035 BKN050
     FM210600 29010KT P6SM VCSH SCT015 BKN035
      AMD LTD TO CLD VIS AND WIND=



000
FTUS45 KSLC 201731
TAFOGD
TAF
KOGD 201731Z 2018/2118 14005KT P6SM VCSH SCT015 BKN035
      TEMPO 2018/2022 6SM -RA BR BKN010
     FM202200 17005KT P6SM VCSH SCT020 BKN040
     FM210900 17012G22KT 6SM -RASN SCT010 BKN035=



000
FTUS45 KSLC 201731
TAFCDC
TAF
KCDC 201731Z 2018/2118 VRB04KT P6SM SCT100
     FM201800 22007KT P6SM SCT080 BKN100
     FM210100 19005KT P6SM SCT040 BKN060=



000
FTUS45 KSLC 201731
TAFPVU
TAF
KPVU 201731Z 2018/2118 VRB03KT P6SM VCSH SCT025 BKN040
     FM202000 VRB03KT P6SM VCSH SCT040 BKN060
     FM210600 VRB05KT 6SM -RASN SCT020 BKN040
     FM211200 16012G20KT 6SM -RA SCT020 BKN040
      AMD LTD TO CLD VIS AND WIND=



000
FTUS45 KSLC 201731
TAFBCE
TAF
KBCE 201731Z 2018/2118 27005KT P6SM FEW100
     FM202200 30008KT P6SM SCT040 BKN060=



000
FTUS45 KSLC 201731
TAFSGU
TAF
KSGU 201731Z 2018/2118 VRB04KT P6SM SCT120
      AMD LTD TO CLD VIS AND WIND=



000
FTUS45 KSLC 201731
TAFPVU
TAF
KPVU 201731Z 2018/2118 VRB03KT P6SM VCSH SCT025 BKN040
     FM202000 VRB03KT P6SM VCSH SCT040 BKN060
     FM210600 VRB05KT 6SM -RASN SCT020 BKN040
     FM211200 16012G20KT 6SM -RA SCT020 BKN040
      AMD LTD TO CLD VIS AND WIND=



000
FTUS45 KSLC 201731
TAFOGD
TAF
KOGD 201731Z 2018/2118 14005KT P6SM VCSH SCT015 BKN035
      TEMPO 2018/2022 6SM -RA BR BKN010
     FM202200 17005KT P6SM VCSH SCT020 BKN040
     FM210900 17012G22KT 6SM -RASN SCT010 BKN035=



000
FTUS45 KSLC 201731
TAFBCE
TAF
KBCE 201731Z 2018/2118 27005KT P6SM FEW100
     FM202200 30008KT P6SM SCT040 BKN060=



000
FTUS45 KSLC 201731
TAFSGU
TAF
KSGU 201731Z 2018/2118 VRB04KT P6SM SCT120
      AMD LTD TO CLD VIS AND WIND=



000
FTUS45 KSLC 201731
TAFENV
TAF
KENV 201731Z 2018/2118 VRB04KT P6SM VCSH SCT050 BKN070
     FM210000 23006KT P6SM VCSH SCT035 BKN050
     FM210600 29010KT P6SM VCSH SCT015 BKN035
      AMD LTD TO CLD VIS AND WIND=



000
FTUS45 KSLC 201731
TAFLGU
TAF
KLGU 201731Z 2018/2118 VRB03KT P6SM VCSH SCT025 BKN040
      TEMPO 2020/2024 -SHRA BKN025 OVC040
     FM210000 VRB04KT 6SM -SHRA SCT015 BKN030
     FM211200 24011KT 6SM -RASN SCT010 BKN025=



000
FTUS45 KSLC 201731
TAFCDC
TAF
KCDC 201731Z 2018/2118 VRB04KT P6SM SCT100
     FM201800 22007KT P6SM SCT080 BKN100
     FM210100 19005KT P6SM SCT040 BKN060=



000
FTUS45 KSLC 201731
TAFSLC
TAF
KSLC 201731Z 2018/2124 15006KT P6SM VCSH SCT040 BKN060
     FM202000 16007KT P6SM VCSH SCT030 BKN070
     FM210800 14012G18KT P6SM VCSH SCT020 BKN050
     FM211200 16014G22KT 6SM -RA SCT020 BKN040=



000
FTUS45 KSLC 201454 AAA
TAFSLC
TAF AMD
KSLC 201454Z 2015/2118 15006KT P6SM VCSH SCT040 BKN060
     FM201800 16007KT P6SM VCSH SCT030 BKN070
     FM210100 14006KT P6SM VCSH SCT020 BKN050
     FM211200 16014KT 6SM -RA SCT020 BKN040=



000
FTUS45 KSLC 201454 AAA
TAFSLC
TAF AMD
KSLC 201454Z 2015/2118 15006KT P6SM VCSH SCT040 BKN060
     FM201800 16007KT P6SM VCSH SCT030 BKN070
     FM210100 14006KT P6SM VCSH SCT020 BKN050
     FM211200 16014KT 6SM -RA SCT020 BKN040=



000
FTUS45 KSLC 201200 CCA
TAFOGD
TAF COR
KOGD 201200Z 2012/2112 17005KT P6SM VCSH SCT010 BKN035
      TEMPO 2012/2014 6SM -RA BR BKN010
     FM201700 17005KT P6SM VCSH SCT020 BKN040
     FM210900 17010KT 6SM -RASN SCT010 BKN035=



000
FTUS45 KSLC 201200 CCA
TAFOGD
TAF COR
KOGD 201200Z 2012/2112 17005KT P6SM VCSH SCT010 BKN035
      TEMPO 2012/2014 6SM -RA BR BKN010
     FM201700 17005KT P6SM VCSH SCT020 BKN040
     FM210900 17010KT 6SM -RASN SCT010 BKN035=



000
FTUS45 KSLC 201153 CCA
TAFSLC
TAF COR
KSLC 201153Z 2012/2118 15005KT P6SM VCSH SCT030 BKN040
     FM201800 16007KT P6SM VCSH SCT030 BKN070
     FM210100 14006KT P6SM VCSH SCT020 BKN050
     FM211200 16014KT 6SM -RA SCT020 BKN040=



000
FTUS45 KSLC 201153 CCA
TAFSLC
TAF COR
KSLC 201153Z 2012/2118 15005KT P6SM VCSH SCT030 BKN040
     FM201800 16007KT P6SM VCSH SCT030 BKN070
     FM210100 14006KT P6SM VCSH SCT020 BKN050
     FM211200 16014KT 6SM -RA SCT020 BKN040=



000
FTUS45 KSLC 201127
TAFOGD
TAF
KOGD 201127Z 2012/2112 17005KT 6SM -RA BR BKN030
      TEMPO 2012/2014 BKN035
     FM201700 17005KT P6SM VCSH SCT020 BKN040
     FM210900 17010KT 6SM -RASN SCT010 BKN035=



000
FTUS45 KSLC 201127
TAFLGU
TAF
KLGU 201127Z 2012/2112 VRB03KT 6SM BR VCSH SCT020 BKN035
      TEMPO 2012/2014 BKN025
     FM210000 VRB04KT 6SM -RASN SCT010 BKN030=



000
FTUS45 KSLC 201127
TAFENV
TAF
KENV 201127Z 2012/2112 VRB05KT P6SM SCT040 BKN060
     FM201600 15007KT P6SM VCSH SCT025 BKN040
     FM202300 29010KT P6SM VCSH SCT015 BKN035
      AMD LTD TO CLD VIS AND WIND=



000
FTUS45 KSLC 201127
TAFSLC
TAF
KSLC 201127Z 2012/2118 15005KT P6SM VCSH SCT020 BKN040
      TEMPO 2012/2014 6SM -RA SCT020 BKN030
     FM201800 16007KT P6SM VCSH SCT030 BKN070
     FM210100 14006KT P6SM VCSH SCT020 BKN050
     FM211200 16014KT 6SM -RA SCT020 BKN040=



000
FTUS45 KSLC 201127
TAFSGU
TAF
KSGU 201127Z 2012/2112 VRB04KT P6SM SCT120
      AMD LTD TO CLD VIS AND WIND=



000
FTUS45 KSLC 201127
TAFBCE
TAF
KBCE 201127Z 2012/2112 27005KT P6SM FEW100
     FM202100 30008KT P6SM SCT040 BKN060=



000
FTUS45 KSLC 201127
TAFCDC
TAF
KCDC 201127Z 2012/2112 VRB04KT P6SM SCT100
     FM201800 22007KT P6SM SCT080 BKN100
     FM210100 19005KT P6SM SCT040 BKN060=



000
FTUS45 KSLC 201127
TAFPVU
TAF
KPVU 201127Z 2012/2112 VRB03KT P6SM VCSH SCT025 BKN040
     FM201800 VRB03KT P6SM VCSH SCT040 BKN060
     FM210300 VRB05KT 6SM -RASN SCT020 BKN040
      AMD LTD TO CLD VIS AND WIND=



000
FTUS45 KSLC 201127
TAFCDC
TAF
KCDC 201127Z 2012/2112 VRB04KT P6SM SCT100
     FM201800 22007KT P6SM SCT080 BKN100
     FM210100 19005KT P6SM SCT040 BKN060=



000
FTUS45 KSLC 201127
TAFBCE
TAF
KBCE 201127Z 2012/2112 27005KT P6SM FEW100
     FM202100 30008KT P6SM SCT040 BKN060=



000
FTUS45 KSLC 201127
TAFLGU
TAF
KLGU 201127Z 2012/2112 VRB03KT 6SM BR VCSH SCT020 BKN035
      TEMPO 2012/2014 BKN025
     FM210000 VRB04KT 6SM -RASN SCT010 BKN030=



000
FTUS45 KSLC 201127
TAFSGU
TAF
KSGU 201127Z 2012/2112 VRB04KT P6SM SCT120
      AMD LTD TO CLD VIS AND WIND=



000
FTUS45 KSLC 201127
TAFPVU
TAF
KPVU 201127Z 2012/2112 VRB03KT P6SM VCSH SCT025 BKN040
     FM201800 VRB03KT P6SM VCSH SCT040 BKN060
     FM210300 VRB05KT 6SM -RASN SCT020 BKN040
      AMD LTD TO CLD VIS AND WIND=



000
FTUS45 KSLC 201127
TAFOGD
TAF
KOGD 201127Z 2012/2112 17005KT 6SM -RA BR BKN030
      TEMPO 2012/2014 BKN035
     FM201700 17005KT P6SM VCSH SCT020 BKN040
     FM210900 17010KT 6SM -RASN SCT010 BKN035=



000
FTUS45 KSLC 201127
TAFSLC
TAF
KSLC 201127Z 2012/2118 15005KT P6SM VCSH SCT020 BKN040
      TEMPO 2012/2014 6SM -RA SCT020 BKN030
     FM201800 16007KT P6SM VCSH SCT030 BKN070
     FM210100 14006KT P6SM VCSH SCT020 BKN050
     FM211200 16014KT 6SM -RA SCT020 BKN040=



000
FTUS45 KSLC 201127
TAFENV
TAF
KENV 201127Z 2012/2112 VRB05KT P6SM SCT040 BKN060
     FM201600 15007KT P6SM VCSH SCT025 BKN040
     FM202300 29010KT P6SM VCSH SCT015 BKN035
      AMD LTD TO CLD VIS AND WIND=



000
FTUS45 KSLC 200924 AAA
TAFPVU
TAF AMD
KPVU 200924Z 2009/2106 VRB03KT P6SM VCSH SCT030 BKN050
      TEMPO 2009/2011 6SM -SN SCT015 BKN025
     FM201800 VRB03KT P6SM VCSH SCT050 BKN070
      AMD LTD TO CLD VIS AND WIND=



000
FTUS45 KSLC 200924 AAA
TAFPVU
TAF AMD
KPVU 200924Z 2009/2106 VRB03KT P6SM VCSH SCT030 BKN050
      TEMPO 2009/2011 6SM -SN SCT015 BKN025
     FM201800 VRB03KT P6SM VCSH SCT050 BKN070
      AMD LTD TO CLD VIS AND WIND=



000
FTUS45 KSLC 200827 AAB
TAFOGD
TAF AMD
KOGD 200827Z 2008/2106 17005KT P6SM VCSH SCT020 BKN040
      TEMPO 2008/2010 -RA BKN025
     FM201000 17005KT 6SM BR VCSH SCT020 BKN040
     FM201700 17005KT P6SM VCSH SCT020 BKN040=



000
FTUS45 KSLC 200827 AAB
TAFOGD
TAF AMD
KOGD 200827Z 2008/2106 17005KT P6SM VCSH SCT020 BKN040
      TEMPO 2008/2010 -RA BKN025
     FM201000 17005KT 6SM BR VCSH SCT020 BKN040
     FM201700 17005KT P6SM VCSH SCT020 BKN040=



000
FTUS45 KSLC 200826 AAB
TAFSLC
TAF AMD
KSLC 200826Z 2008/2112 15005KT P6SM VCSH SCT040 BKN050
      TEMPO 2008/2010 33006KT -RA BKN035
     FM201000 15005KT P6SM VCSH SCT020 BKN040
     FM201800 16007KT P6SM VCSH SCT030 BKN070
     FM210300 14006KT P6SM VCSH SCT020 BKN050=



000
FTUS45 KSLC 200826 AAB
TAFSLC
TAF AMD
KSLC 200826Z 2008/2112 15005KT P6SM VCSH SCT040 BKN050
      TEMPO 2008/2010 33006KT -RA BKN035
     FM201000 15005KT P6SM VCSH SCT020 BKN040
     FM201800 16007KT P6SM VCSH SCT030 BKN070
     FM210300 14006KT P6SM VCSH SCT020 BKN050=



000
FTUS45 KSLC 200755 AAA
TAFLGU
TAF AMD
KLGU 200755Z 2008/2106 VRB04KT P6SM VCSH SCT020 BKN040
      TEMPO 2008/2010 5SM BR
     FM210000 VRB04KT 3SM -SN SCT007 BKN010=



000
FTUS45 KSLC 200755 AAA
TAFLGU
TAF AMD
KLGU 200755Z 2008/2106 VRB04KT P6SM VCSH SCT020 BKN040
      TEMPO 2008/2010 5SM BR
     FM210000 VRB04KT 3SM -SN SCT007 BKN010=



000
FTUS45 KSLC 200755 AAA
TAFLGU
TAF AMD
KLGU 200755Z 2008/2106 VRB04KT P6SM VCSH SCT020 BKN040
      TEMPO 2008/2010 5SM BR
     FM210000 VRB04KT 3SM -SN SCT007 BKN010=



000
FTUS45 KSLC 200755 AAA
TAFLGU
TAF AMD
KLGU 200755Z 2008/2106 VRB04KT P6SM VCSH SCT020 BKN040
      TEMPO 2008/2010 5SM BR
     FM210000 VRB04KT 3SM -SN SCT007 BKN010=



000
FTUS45 KSLC 200721 AAB
TAFBCE
TAF AMD
KBCE 200721Z 2007/2106 VRB05KT P6SM SCT010 BKN060
     FM201600 27005KT P6SM SCT010 BKN080
     FM201800 14007KT P6SM SCT080=



000
FTUS45 KSLC 200721 AAB
TAFBCE
TAF AMD
KBCE 200721Z 2007/2106 VRB05KT P6SM SCT010 BKN060
     FM201600 27005KT P6SM SCT010 BKN080
     FM201800 14007KT P6SM SCT080=



000
FTUS45 KSLC 200719 AAA
TAFOGD
TAF AMD
KOGD 200719Z 2007/2106 17005KT P6SM VCSH SCT020 BKN040
      TEMPO 2007/2010 VRB04KT 6SM -RASN BKN020
     FM201000 17005KT 6SM BR VCSH SCT020 BKN040
     FM201700 17005KT P6SM VCSH SCT020 BKN040=



000
FTUS45 KSLC 200602 AAA
TAFBCE
TAF AMD
KBCE 200602Z 2006/2106 27005KT P6SM SCT002 BKN060
      TEMPO 2006/2008 BKN002
     FM201600 27005KT P6SM SCT010 BKN080
     FM201800 14007KT P6SM SCT080=



000
FTUS45 KSLC 200602 AAA
TAFBCE
TAF AMD
KBCE 200602Z 2006/2106 27005KT P6SM SCT002 BKN060
      TEMPO 2006/2008 BKN002
     FM201600 27005KT P6SM SCT010 BKN080
     FM201800 14007KT P6SM SCT080=



000
FTUS45 KSLC 200556 CCA
TAFLGU
TAF COR
KLGU 200556Z 2006/2106 VRB04KT P6SM VCSH SCT020 BKN040
      TEMPO 2006/2008 6SM -RASN BKN015
     FM210000 VRB04KT 3SM -SN SCT007 BKN010=



000
FTUS45 KSLC 200533
TAFSLC
TAF
KSLC 200533Z 2006/2112 15005KT P6SM VCSH SCT040 BKN070
      TEMPO 2006/2010 33006KT 6SM -RASN SCT020 BKN050
     FM201000 15005KT P6SM VCSH SCT020 BKN040
     FM201800 16007KT P6SM VCSH SCT030 BKN070
     FM210300 14006KT P6SM VCSH SCT020 BKN050=



000
FTUS45 KSLC 200533
TAFSGU
TAF
KSGU 200533Z 2006/2106 VRB04KT P6SM BKN100
      AMD LTD TO CLD VIS AND WIND=



000
FTUS45 KSLC 200533
TAFLGU
TAF
KLGU 200533Z 2006/2106 VRB04KT P6SM VCSH SCT020 BKN040
      TEMPO 2006/2008 BKN030
     FM210000 VRB04KT 3SM -SN SCT007 BKN010=



000
FTUS45 KSLC 200533
TAFPVU
TAF
KPVU 200533Z 2006/2106 VRB04KT P6SM SCT030 BKN060
     FM201000 VRB03KT P6SM VCSH SCT030 BKN050
     FM201800 VRB03KT P6SM VCSH SCT050 BKN070
      AMD LTD TO CLD VIS AND WIND=



000
FTUS45 KSLC 200533
TAFENV
TAF
KENV 200533Z 2006/2106 VRB05KT P6SM SCT025 BKN060
     FM201600 15007KT P6SM VCSH SCT025 BKN060
      AMD LTD TO CLD VIS AND WIND=



000
FTUS45 KSLC 200533
TAFCDC
TAF
KCDC 200533Z 2006/2106 18008KT P6SM BKN100
     FM201000 VRB04KT P6SM SCT040 BKN060
     FM201800 22007KT P6SM SCT100=



000
FTUS45 KSLC 200533
TAFOGD
TAF
KOGD 200533Z 2006/2106 17005KT P6SM VCSH SCT020 BKN040
      TEMPO 2006/2010 VRB04KT 6SM -RASN BKN030
     FM201000 17005KT 6SM BR VCSH SCT020 BKN040
     FM201700 17005KT P6SM VCSH SCT020 BKN040=



000
FTUS45 KSLC 200533
TAFBCE
TAF
KBCE 200533Z 2006/2106 27005KT P6SM BKN002
     FM201600 27005KT P6SM SCT010 BKN080
     FM201800 14007KT P6SM SCT080=



000
FTUS45 KSLC 200533
TAFBCE
TAF
KBCE 200533Z 2006/2106 27005KT P6SM BKN002
     FM201600 27005KT P6SM SCT010 BKN080
     FM201800 14007KT P6SM SCT080=



000
FTUS45 KSLC 200533
TAFPVU
TAF
KPVU 200533Z 2006/2106 VRB04KT P6SM SCT030 BKN060
     FM201000 VRB03KT P6SM VCSH SCT030 BKN050
     FM201800 VRB03KT P6SM VCSH SCT050 BKN070
      AMD LTD TO CLD VIS AND WIND=



000
FTUS45 KSLC 200533
TAFOGD
TAF
KOGD 200533Z 2006/2106 17005KT P6SM VCSH SCT020 BKN040
      TEMPO 2006/2010 VRB04KT 6SM -RASN BKN030
     FM201000 17005KT 6SM BR VCSH SCT020 BKN040
     FM201700 17005KT P6SM VCSH SCT020 BKN040=



000
FTUS45 KSLC 200533
TAFLGU
TAF
KLGU 200533Z 2006/2106 VRB04KT P6SM VCSH SCT020 BKN040
      TEMPO 2006/2008 BKN030
     FM210000 VRB04KT 3SM -SN SCT007 BKN010=



000
FTUS45 KSLC 200533
TAFSGU
TAF
KSGU 200533Z 2006/2106 VRB04KT P6SM BKN100
      AMD LTD TO CLD VIS AND WIND=



000
FTUS45 KSLC 200533
TAFSLC
TAF
KSLC 200533Z 2006/2112 15005KT P6SM VCSH SCT040 BKN070
      TEMPO 2006/2010 33006KT 6SM -RASN SCT020 BKN050
     FM201000 15005KT P6SM VCSH SCT020 BKN040
     FM201800 16007KT P6SM VCSH SCT030 BKN070
     FM210300 14006KT P6SM VCSH SCT020 BKN050=



000
FTUS45 KSLC 200533
TAFENV
TAF
KENV 200533Z 2006/2106 VRB05KT P6SM SCT025 BKN060
     FM201600 15007KT P6SM VCSH SCT025 BKN060
      AMD LTD TO CLD VIS AND WIND=



000
FTUS45 KSLC 200533
TAFCDC
TAF
KCDC 200533Z 2006/2106 18008KT P6SM BKN100
     FM201000 VRB04KT P6SM SCT040 BKN060
     FM201800 22007KT P6SM SCT100=



000
FTUS45 KSLC 200320 AAA
TAFBCE
TAF AMD
KBCE 200320Z 2003/2024 27005KT P6SM BKN006
     FM201800 14007KT P6SM SCT100=



000
FTUS45 KSLC 200320 AAA
TAFBCE
TAF AMD
KBCE 200320Z 2003/2024 27005KT P6SM BKN006
     FM201800 14007KT P6SM SCT100=



000
FTUS45 KSLC 200244 AAA
TAFSLC
TAF AMD
KSLC 200244Z 2003/2106 15005KT P6SM SCT050 BKN070
     FM200400 15005KT P6SM VCSH SCT040 BKN050
     FM201000 15005KT P6SM VCSH SCT020 BKN040
     FM201800 15006KT P6SM VCSH SCT030 BKN070=



000
FTUS45 KSLC 200244 AAA
TAFSLC
TAF AMD
KSLC 200244Z 2003/2106 15005KT P6SM SCT050 BKN070
     FM200400 15005KT P6SM VCSH SCT040 BKN050
     FM201000 15005KT P6SM VCSH SCT020 BKN040
     FM201800 15006KT P6SM VCSH SCT030 BKN070=



000
FTUS45 KSLC 192320
TAFENV
TAF
KENV 192320Z 2000/2024 VRB05KT P6SM SCT080 BKN100
     FM200100 VRB03KT P6SM VCSH SCT040 BKN070
     FM200600 34006KT P6SM SCT080 BKN100
      AMD LTD TO CLD VIS AND WIND=



000
FTUS45 KSLC 192320
TAFOGD
TAF
KOGD 192320Z 2000/2024 17006KT P6SM SCT070 SCT100
     FM200300 17005KT P6SM VCSH SCT020 BKN040
     FM200900 17005KT P6SM VCSH SCT040 BKN060=



000
FTUS45 KSLC 192320
TAFLGU
TAF
KLGU 192320Z 2000/2024 VRB03KT P6SM SCT060 BKN100
     FM200100 VRB03KT P6SM VCSH SCT020 BKN040
     FM200300 VRB03KT 3SM -SHSN SCT020 BKN030
     FM200600 VRB03KT P6SM VCSH SCT020 BKN040=



000
FTUS45 KSLC 192320
TAFPVU
TAF
KPVU 192320Z 2000/2024 VRB04KT P6SM FEW060 BKN100
     FM200600 VRB03KT P6SM SCT030 BKN070
     FM201000 VRB03KT P6SM VCSH SCT030 BKN050
     FM201800 VRB03KT P6SM VCSH SCT050 BKN070
      AMD LTD TO CLD VIS AND WIND=



000
FTUS45 KSLC 192320
TAFLGU
TAF
KLGU 192320Z 2000/2024 VRB03KT P6SM SCT060 BKN100
     FM200100 VRB03KT P6SM VCSH SCT020 BKN040
     FM200300 VRB03KT 3SM -SHSN SCT020 BKN030
     FM200600 VRB03KT P6SM VCSH SCT020 BKN040=



000
FTUS45 KSLC 192320
TAFSLC
TAF
KSLC 192320Z 2000/2106 17009KT P6SM SCT080 BKN100
     FM200200 15005KT P6SM SCT050 BKN070
     FM200400 15005KT P6SM VCSH SCT040 BKN050
     FM201000 15005KT P6SM VCSH SCT020 BKN040
     FM201800 15006KT P6SM VCSH SCT030 BKN070=



000
FTUS45 KSLC 192320
TAFOGD
TAF
KOGD 192320Z 2000/2024 17006KT P6SM SCT070 SCT100
     FM200300 17005KT P6SM VCSH SCT020 BKN040
     FM200900 17005KT P6SM VCSH SCT040 BKN060=



000
FTUS45 KSLC 192320
TAFENV
TAF
KENV 192320Z 2000/2024 VRB05KT P6SM SCT080 BKN100
     FM200100 VRB03KT P6SM VCSH SCT040 BKN070
     FM200600 34006KT P6SM SCT080 BKN100
      AMD LTD TO CLD VIS AND WIND=



000
FTUS45 KSLC 192320
TAFCDC
TAF
KCDC 192320Z 2000/2024 22006KT P6SM SCT100
     FM200200 VRB04KT P6SM SCT100
     FM201800 22007KT P6SM SCT100=



000
FTUS45 KSLC 192320
TAFPVU
TAF
KPVU 192320Z 2000/2024 VRB04KT P6SM FEW060 BKN100
     FM200600 VRB03KT P6SM SCT030 BKN070
     FM201000 VRB03KT P6SM VCSH SCT030 BKN050
     FM201800 VRB03KT P6SM VCSH SCT050 BKN070
      AMD LTD TO CLD VIS AND WIND=



000
FTUS45 KSLC 192320
TAFSGU
TAF
KSGU 192320Z 2000/2024 VRB04KT P6SM BKN150
     FM200200 VRB04KT P6SM SCT150
      AMD LTD TO CLD VIS AND WIND=



000
FTUS45 KSLC 192320
TAFSLC
TAF
KSLC 192320Z 2000/2106 17009KT P6SM SCT080 BKN100
     FM200200 15005KT P6SM SCT050 BKN070
     FM200400 15005KT P6SM VCSH SCT040 BKN050
     FM201000 15005KT P6SM VCSH SCT020 BKN040
     FM201800 15006KT P6SM VCSH SCT030 BKN070=



000
FTUS45 KSLC 192320
TAFBCE
TAF
KBCE 192320Z 2000/2024 14009KT P6SM SCT100
     FM200100 27005KT P6SM SCT100
     FM201800 14007KT P6SM SCT100=



000
FTUS45 KSLC 192320
TAFSGU
TAF
KSGU 192320Z 2000/2024 VRB04KT P6SM BKN150
     FM200200 VRB04KT P6SM SCT150
      AMD LTD TO CLD VIS AND WIND=



000
FTUS45 KSLC 192320
TAFCDC
TAF
KCDC 192320Z 2000/2024 22006KT P6SM SCT100
     FM200200 VRB04KT P6SM SCT100
     FM201800 22007KT P6SM SCT100=



000
FTUS45 KSLC 192320
TAFBCE
TAF
KBCE 192320Z 2000/2024 14009KT P6SM SCT100
     FM200100 27005KT P6SM SCT100
     FM201800 14007KT P6SM SCT100=



000
FTUS45 KSLC 192106 AAA
TAFSLC
TAF AMD
KSLC 192106Z 1921/2024 17009KT P6SM SCT080 BKN100
      TEMPO 1921/1922 P6SM -SHRA BKN070
     FM200200 15005KT P6SM SCT050 BKN070
     FM200400 15005KT P6SM VCSH SCT040 BKN050
     FM201000 15005KT P6SM VCSH SCT020 BKN040
     FM201300 15006KT P6SM VCSH SCT030 BKN070=



000
FTUS45 KSLC 192106 AAA
TAFSLC
TAF AMD
KSLC 192106Z 1921/2024 17009KT P6SM SCT080 BKN100
      TEMPO 1921/1922 P6SM -SHRA BKN070
     FM200200 15005KT P6SM SCT050 BKN070
     FM200400 15005KT P6SM VCSH SCT040 BKN050
     FM201000 15005KT P6SM VCSH SCT020 BKN040
     FM201300 15006KT P6SM VCSH SCT030 BKN070=



000
FTUS45 KSLC 191745
TAFENV
TAF
KENV 191745Z 1918/2018 VRB03KT P6SM FEW080 SCT120
     FM191900 VRB05KT P6SM SCT080 BKN100
     FM200100 VRB03KT P6SM VCSH SCT040 BKN070
     FM200600 34006KT P6SM SCT080 BKN100
      AMD LTD TO CLD VIS AND WIND=



000
FTUS45 KSLC 191745
TAFBCE
TAF
KBCE 191745Z 1918/2018 27008KT P6SM SCT120
     FM191900 20008KT P6SM SCT100
     FM200100 27005KT P6SM SCT100=



000
FTUS45 KSLC 191745
TAFSLC
TAF
KSLC 191745Z 1918/2024 17009KT P6SM SCT070 SCT100
     FM200200 15005KT P6SM SCT050 BKN070
     FM200400 15005KT P6SM VCSH SCT040 BKN050
     FM201000 15005KT P6SM VCSH SCT020 BKN040
     FM201300 15006KT P6SM VCSH SCT030 BKN070=



000
FTUS45 KSLC 191745
TAFLGU
TAF
KLGU 191745Z 1918/2018 VRB03KT P6SM SCT040 BKN060
     FM191900 VRB03KT P6SM SCT060 BKN100
     FM200100 VRB03KT P6SM VCSH SCT020 BKN040
     FM200300 VRB03KT 3SM -SHSN SCT020 BKN030
     FM200600 VRB03KT P6SM VCSH SCT020 BKN040=



000
FTUS45 KSLC 191745
TAFSGU
TAF
KSGU 191745Z 1918/2018 VRB04KT P6SM FEW030 BKN150
     FM200200 VRB04KT P6SM SCT025 SCT150
      AMD LTD TO CLD VIS AND WIND=



000
FTUS45 KSLC 191745
TAFOGD
TAF
KOGD 191745Z 1918/2018 17006KT P6SM SCT070 SCT100
     FM200300 17005KT P6SM VCSH SCT020 BKN040
     FM200900 17005KT P6SM VCSH SCT040 BKN060=



000
FTUS45 KSLC 191745
TAFENV
TAF
KENV 191745Z 1918/2018 VRB03KT P6SM FEW080 SCT120
     FM191900 VRB05KT P6SM SCT080 BKN100
     FM200100 VRB03KT P6SM VCSH SCT040 BKN070
     FM200600 34006KT P6SM SCT080 BKN100
      AMD LTD TO CLD VIS AND WIND=



000
FTUS45 KSLC 191745
TAFCDC
TAF
KCDC 191745Z 1918/2018 VRB04KT P6SM SCT120
     FM191900 22006KT P6SM SCT100
     FM200200 VRB04KT P6SM SCT100=



000
FTUS45 KSLC 191745
TAFCDC
TAF
KCDC 191745Z 1918/2018 VRB04KT P6SM SCT120
     FM191900 22006KT P6SM SCT100
     FM200200 VRB04KT P6SM SCT100=



000
FTUS45 KSLC 191745
TAFPVU
TAF
KPVU 191745Z 1918/2018 VRB04KT P6SM FEW060 BKN100
     FM200600 VRB03KT P6SM SCT030 BKN070
     FM201000 VRB03KT P6SM VCSH SCT030 BKN050
      AMD LTD TO CLD VIS AND WIND=



000
FTUS45 KSLC 191745
TAFSGU
TAF
KSGU 191745Z 1918/2018 VRB04KT P6SM FEW030 BKN150
     FM200200 VRB04KT P6SM SCT025 SCT150
      AMD LTD TO CLD VIS AND WIND=



000
FTUS45 KSLC 191456 AAB
TAFSLC
TAF AMD
KSLC 191456Z 1915/2018 14009KT P6SM FEW060 BKN120
     FM191700 17010KT P6SM SCT080 BKN100
     FM200200 15005KT P6SM SCT050 BKN070
     FM200600 15005KT P6SM VCSH SCT040 BKN060
     FM200800 15005KT 4SM BR VCSH SCT020 BKN030=



000
FTUS45 KSLC 191456 AAB
TAFSLC
TAF AMD
KSLC 191456Z 1915/2018 14009KT P6SM FEW060 BKN120
     FM191700 17010KT P6SM SCT080 BKN100
     FM200200 15005KT P6SM SCT050 BKN070
     FM200600 15005KT P6SM VCSH SCT040 BKN060
     FM200800 15005KT 4SM BR VCSH SCT020 BKN030=



000
FTUS45 KSLC 191453 AAA
TAFSGU
TAF AMD
KSGU 191453Z 1915/2012 VRB04KT P6SM BKN030
     FM191600 VRB04KT P6SM SCT030 BKN150
     FM200200 VRB04KT P6SM SCT025 BKN060
      AMD LTD TO CLD VIS AND WIND=



000
FTUS45 KSLC 191453 AAA
TAFSGU
TAF AMD
KSGU 191453Z 1915/2012 VRB04KT P6SM BKN030
     FM191600 VRB04KT P6SM SCT030 BKN150
     FM200200 VRB04KT P6SM SCT025 BKN060
      AMD LTD TO CLD VIS AND WIND=



000
FTUS45 KSLC 191137
TAFSLC
TAF
KSLC 191137Z 1912/2018 14009KT P6SM SCT060 BKN070
     FM191700 17010KT P6SM SCT080 BKN100
     FM200200 15005KT P6SM SCT050 BKN070
     FM200600 15005KT P6SM VCSH SCT040 BKN060
     FM200800 15005KT 4SM BR VCSH SCT020 BKN030=



000
FTUS45 KSLC 191137
TAFOGD
TAF
KOGD 191137Z 1912/2012 17006KT P6SM BKN070
     FM191900 17010KT P6SM SCT070 BKN100
     FM200200 17005KT P6SM SCT040 BKN060
     FM200900 17005KT P6SM VCSH SCT020 BKN035=



000
FTUS45 KSLC 191137
TAFLGU
TAF
KLGU 191137Z 1912/2012 VRB03KT P6SM SCT040 BKN060
     FM191900 VRB03KT P6SM SCT060 BKN100
     FM200300 VRB03KT P6SM VCSH SCT020 BKN040=



000
FTUS45 KSLC 191137
TAFBCE
TAF
KBCE 191137Z 1912/2012 27008KT P6SM SCT120
     FM191800 20008KT P6SM SCT120
     FM200100 27005KT P6SM SCT020 BKN080=



000
FTUS45 KSLC 191137
TAFENV
TAF
KENV 191137Z 1912/2012 VRB03KT P6SM FEW080 SCT120
     FM191900 VRB05KT P6SM SCT080 BKN100
     FM200200 VRB03KT P6SM VCSH SCT040 BKN060
      AMD LTD TO CLD VIS AND WIND=



000
FTUS45 KSLC 191137
TAFPVU
TAF
KPVU 191137Z 1912/2012 VRB04KT P6SM FEW060 BKN100
     FM200600 VRB03KT P6SM SCT030 BKN040
      AMD LTD TO CLD VIS AND WIND=



000
FTUS45 KSLC 191137
TAFSGU
TAF
KSGU 191137Z 1912/2012 VRB04KT P6SM BKN025
     FM191400 VRB04KT P6SM SCT025 SCT120
     FM200200 VRB04KT P6SM SCT025 BKN060
      AMD LTD TO CLD VIS AND WIND=



000
FTUS45 KSLC 191137
TAFCDC
TAF
KCDC 191137Z 1912/2012 VRB04KT P6SM FEW040 SCT120
     FM191900 22007KT P6SM SCT100
     FM200200 VRB04KT P6SM FEW040 BKN060=



000
FTUS45 KSLC 191137
TAFENV
TAF
KENV 191137Z 1912/2012 VRB03KT P6SM FEW080 SCT120
     FM191900 VRB05KT P6SM SCT080 BKN100
     FM200200 VRB03KT P6SM VCSH SCT040 BKN060
      AMD LTD TO CLD VIS AND WIND=



000
FTUS45 KSLC 191137
TAFCDC
TAF
KCDC 191137Z 1912/2012 VRB04KT P6SM FEW040 SCT120
     FM191900 22007KT P6SM SCT100
     FM200200 VRB04KT P6SM FEW040 BKN060=



000
FTUS45 KSLC 191137
TAFLGU
TAF
KLGU 191137Z 1912/2012 VRB03KT P6SM SCT040 BKN060
     FM191900 VRB03KT P6SM SCT060 BKN100
     FM200300 VRB03KT P6SM VCSH SCT020 BKN040=



000
FTUS45 KSLC 191137
TAFOGD
TAF
KOGD 191137Z 1912/2012 17006KT P6SM BKN070
     FM191900 17010KT P6SM SCT070 BKN100
     FM200200 17005KT P6SM SCT040 BKN060
     FM200900 17005KT P6SM VCSH SCT020 BKN035=



000
FTUS45 KSLC 191137
TAFSGU
TAF
KSGU 191137Z 1912/2012 VRB04KT P6SM BKN025
     FM191400 VRB04KT P6SM SCT025 SCT120
     FM200200 VRB04KT P6SM SCT025 BKN060
      AMD LTD TO CLD VIS AND WIND=



000
FTUS45 KSLC 191137
TAFBCE
TAF
KBCE 191137Z 1912/2012 27008KT P6SM SCT120
     FM191800 20008KT P6SM SCT120
     FM200100 27005KT P6SM SCT020 BKN080=



000
FTUS45 KSLC 191137
TAFPVU
TAF
KPVU 191137Z 1912/2012 VRB04KT P6SM FEW060 BKN100
     FM200600 VRB03KT P6SM SCT030 BKN040
      AMD LTD TO CLD VIS AND WIND=



000
FTUS45 KSLC 191137
TAFSLC
TAF
KSLC 191137Z 1912/2018 14009KT P6SM SCT060 BKN070
     FM191700 17010KT P6SM SCT080 BKN100
     FM200200 15005KT P6SM SCT050 BKN070
     FM200600 15005KT P6SM VCSH SCT040 BKN060
     FM200800 15005KT 4SM BR VCSH SCT020 BKN030=



000
FTUS45 KSLC 190920 AAA
TAFLGU
TAF AMD
KLGU 190920Z 1909/2006 VRB03KT P6SM SCT040 BKN060
     FM191900 VRB03KT P6SM SCT060 BKN100
     FM200300 VRB03KT P6SM VCSH SCT020 BKN040=



000
FTUS45 KSLC 190920 AAA
TAFLGU
TAF AMD
KLGU 190920Z 1909/2006 VRB03KT P6SM SCT040 BKN060
     FM191900 VRB03KT P6SM SCT060 BKN100
     FM200300 VRB03KT P6SM VCSH SCT020 BKN040=



000
FTUS45 KSLC 190920 AAA
TAFLGU
TAF AMD
KLGU 190920Z 1909/2006 VRB03KT P6SM SCT040 BKN060
     FM191900 VRB03KT P6SM SCT060 BKN100
     FM200300 VRB03KT P6SM VCSH SCT020 BKN040=



000
FTUS45 KSLC 190847 AAB
TAFSLC
TAF AMD
KSLC 190847Z 1909/2012 14009KT P6SM FEW060 SCT120
     FM191700 17010KT P6SM SCT080 BKN100
     FM200200 15005KT P6SM SCT060 BKN080
     FM200600 15005KT P6SM VCSH SCT040 BKN070=



000
FTUS45 KSLC 190847 AAB
TAFSLC
TAF AMD
KSLC 190847Z 1909/2012 14009KT P6SM FEW060 SCT120
     FM191700 17010KT P6SM SCT080 BKN100
     FM200200 15005KT P6SM SCT060 BKN080
     FM200600 15005KT P6SM VCSH SCT040 BKN070=



000
FTUS45 KSLC 190527
TAFBCE
TAF
KBCE 190527Z 1906/2006 27005KT P6SM SCT120
     FM191800 14007KT P6SM SCT120
     FM200100 27005KT P6SM SCT080=



000
FTUS45 KSLC 190527
TAFLGU
TAF
KLGU 190527Z 1906/2006 VRB03KT P6SM BKN070
     FM191000 00000KT P6SM BCFG FEW001 SCT070
     FM191500 VRB03KT P6SM SCT100
     FM191900 VRB03KT P6SM SCT060 BKN100
     FM200300 VRB03KT P6SM VCSH SCT020 BKN040=



000
FTUS45 KSLC 190527
TAFENV
TAF
KENV 190527Z 1906/2006 VRB03KT P6SM FEW080 SCT120
     FM191900 VRB05KT P6SM SCT080 BKN100
     FM200200 VRB03KT P6SM VCSH SCT040 BKN060
      AMD LTD TO CLD VIS AND WIND=



000
FTUS45 KSLC 190527
TAFOGD
TAF
KOGD 190527Z 1906/2006 17006KT P6SM SCT050 SCT120
     FM191900 17010KT P6SM SCT070 BKN100
     FM200200 17005KT P6SM SCT050 BKN080=



000
FTUS45 KSLC 190527
TAFSLC
TAF
KSLC 190527Z 1906/2012 14007KT P6SM SCT080 SCT120
     FM191700 17010KT P6SM SCT080 BKN100
     FM200200 15005KT P6SM SCT060 BKN080
     FM200600 15005KT P6SM VCSH SCT040 BKN070=



000
FTUS45 KSLC 190527
TAFPVU
TAF
KPVU 190527Z 1906/2006 VRB04KT P6SM SCT080 SCT120
      AMD LTD TO CLD VIS AND WIND=



000
FTUS45 KSLC 190527
TAFSGU
TAF
KSGU 190527Z 1906/2006 VRB04KT P6SM FEW080
      AMD LTD TO CLD VIS AND WIND=



000
FTUS45 KSLC 190527
TAFCDC
TAF
KCDC 190527Z 1906/2006 16005KT P6SM FEW060 FEW100
     FM191900 22006KT P6SM SCT100
     FM200100 VRB04KT P6SM FEW040 SCT080=



000
FTUS45 KSLC 190527
TAFENV
TAF
KENV 190527Z 1906/2006 VRB03KT P6SM FEW080 SCT120
     FM191900 VRB05KT P6SM SCT080 BKN100
     FM200200 VRB03KT P6SM VCSH SCT040 BKN060
      AMD LTD TO CLD VIS AND WIND=



000
FTUS45 KSLC 190527
TAFOGD
TAF
KOGD 190527Z 1906/2006 17006KT P6SM SCT050 SCT120
     FM191900 17010KT P6SM SCT070 BKN100
     FM200200 17005KT P6SM SCT050 BKN080=



000
FTUS45 KSLC 190527
TAFCDC
TAF
KCDC 190527Z 1906/2006 16005KT P6SM FEW060 FEW100
     FM191900 22006KT P6SM SCT100
     FM200100 VRB04KT P6SM FEW040 SCT080=



000
FTUS45 KSLC 190527
TAFPVU
TAF
KPVU 190527Z 1906/2006 VRB04KT P6SM SCT080 SCT120
      AMD LTD TO CLD VIS AND WIND=



000
FTUS45 KSLC 190527
TAFSLC
TAF
KSLC 190527Z 1906/2012 14007KT P6SM SCT080 SCT120
     FM191700 17010KT P6SM SCT080 BKN100
     FM200200 15005KT P6SM SCT060 BKN080
     FM200600 15005KT P6SM VCSH SCT040 BKN070=



000
FTUS45 KSLC 190527
TAFSGU
TAF
KSGU 190527Z 1906/2006 VRB04KT P6SM FEW080
      AMD LTD TO CLD VIS AND WIND=



000
FTUS45 KSLC 190527
TAFBCE
TAF
KBCE 190527Z 1906/2006 27005KT P6SM SCT120
     FM191800 14007KT P6SM SCT120
     FM200100 27005KT P6SM SCT080=



000
FTUS45 KSLC 190527
TAFLGU
TAF
KLGU 190527Z 1906/2006 VRB03KT P6SM BKN070
     FM191000 00000KT P6SM BCFG FEW001 SCT070
     FM191500 VRB03KT P6SM SCT100
     FM191900 VRB03KT P6SM SCT060 BKN100
     FM200300 VRB03KT P6SM VCSH SCT020 BKN040=



000
FTUS45 KSLC 190306 AAB
TAFSLC
TAF AMD
KSLC 190306Z 1903/2006 15005KT P6SM SCT080 SCT120
     FM192100 24005KT P6SM SCT080 SCT120=



000
FTUS45 KSLC 190306 AAB
TAFSLC
TAF AMD
KSLC 190306Z 1903/2006 15005KT P6SM SCT080 SCT120
     FM192100 24005KT P6SM SCT080 SCT120=



000
FTUS45 KSLC 182333
TAFSLC
TAF
KSLC 182333Z 1900/2006 33005KT P6SM SCT050 SCT090
     FM190300 15005KT P6SM SCT080 SCT120
     FM192100 24005KT P6SM SCT080 SCT120=



000
FTUS45 KSLC 182333
TAFENV
TAF
KENV 182333Z 1900/1924 VRB04KT P6SM FEW080 SCT120
      AMD LTD TO CLD VIS AND WIND=



000
FTUS45 KSLC 182333
TAFLGU
TAF
KLGU 182333Z 1900/1924 VRB03KT P6SM BKN040
     FM191000 00000KT P6SM BCFG FEW001 SCT100
     FM191500 VRB04KT P6SM SCT100=



000
FTUS45 KSLC 182333
TAFPVU
TAF
KPVU 182333Z 1900/1924 VRB04KT P6SM SCT080 SCT120
      AMD LTD TO CLD VIS AND WIND=



000
FTUS45 KSLC 182333
TAFBCE
TAF
KBCE 182333Z 1900/1924 30011KT P6SM FEW030
     FM190300 28005KT P6SM SCT120
     FM191800 14005KT P6SM SCT120=



000
FTUS45 KSLC 182333
TAFOGD
TAF
KOGD 182333Z 1900/1924 VRB05KT P6SM SCT080 SCT120=



000
FTUS45 KSLC 182333
TAFSGU
TAF
KSGU 182333Z 1900/1924 VRB04KT P6SM FEW080
      AMD LTD TO CLD VIS AND WIND=



000
FTUS45 KSLC 182333
TAFCDC
TAF
KCDC 182333Z 1900/1924 VRB04KT P6SM FEW060 FEW100=



000
FTUS45 KSLC 182333
TAFCDC
TAF
KCDC 182333Z 1900/1924 VRB04KT P6SM FEW060 FEW100=



000
FTUS45 KSLC 182333
TAFBCE
TAF
KBCE 182333Z 1900/1924 30011KT P6SM FEW030
     FM190300 28005KT P6SM SCT120
     FM191800 14005KT P6SM SCT120=



000
FTUS45 KSLC 182333
TAFSLC
TAF
KSLC 182333Z 1900/2006 33005KT P6SM SCT050 SCT090
     FM190300 15005KT P6SM SCT080 SCT120
     FM192100 24005KT P6SM SCT080 SCT120=



000
FTUS45 KSLC 182333
TAFSGU
TAF
KSGU 182333Z 1900/1924 VRB04KT P6SM FEW080
      AMD LTD TO CLD VIS AND WIND=



000
FTUS45 KSLC 182333
TAFENV
TAF
KENV 182333Z 1900/1924 VRB04KT P6SM FEW080 SCT120
      AMD LTD TO CLD VIS AND WIND=



000
FTUS45 KSLC 182333
TAFPVU
TAF
KPVU 182333Z 1900/1924 VRB04KT P6SM SCT080 SCT120
      AMD LTD TO CLD VIS AND WIND=



000
FTUS45 KSLC 182333
TAFOGD
TAF
KOGD 182333Z 1900/1924 VRB05KT P6SM SCT080 SCT120=



000
FTUS45 KSLC 182333
TAFLGU
TAF
KLGU 182333Z 1900/1924 VRB03KT P6SM BKN040
     FM191000 00000KT P6SM BCFG FEW001 SCT100
     FM191500 VRB04KT P6SM SCT100=



000
FTUS45 KSLC 182127 AAA
TAFLGU
TAF AMD
KLGU 182127Z 1821/1918 00000KT P6SM SCT040 BKN080
     FM190000 VRB03KT P6SM FEW040 SCT100
     FM191000 00000KT P6SM BCFG FEW001 SCT100=



000
FTUS45 KSLC 182127 AAA
TAFLGU
TAF AMD
KLGU 182127Z 1821/1918 00000KT P6SM SCT040 BKN080
     FM190000 VRB03KT P6SM FEW040 SCT100
     FM191000 00000KT P6SM BCFG FEW001 SCT100=



000
FTUS45 KSLC 182125 AAA
TAFBCE
TAF AMD
KBCE 182125Z 1821/1918 30011KT P6SM FEW030=



000
FTUS45 KSLC 182125 AAA
TAFBCE
TAF AMD
KBCE 182125Z 1821/1918 30011KT P6SM FEW030=



000
FTUS45 KSLC 182120 AAA
TAFOGD
TAF AMD
KOGD 182120Z 1821/1918 VRB03KT P6SM VCSH SCT030 OVC050
      TEMPO 1821/1824 BKN025
     FM190000 27005KT P6SM SCT080 SCT120
     FM190300 17005KT P6SM SCT080 SCT120=



000
FTUS45 KSLC 182120 AAA
TAFOGD
TAF AMD
KOGD 182120Z 1821/1918 VRB03KT P6SM VCSH SCT030 OVC050
      TEMPO 1821/1824 BKN025
     FM190000 27005KT P6SM SCT080 SCT120
     FM190300 17005KT P6SM SCT080 SCT120=



000
FTUS45 KSLC 182106 AAA
TAFSLC
TAF AMD
KSLC 182106Z 1821/1924 18003KT P6SM VCSH FEW020 SCT030 SCT090
     FM182200 30005KT P6SM SCT030 SCT090
     FM190300 15005KT P6SM SCT080 SCT120=



000
FTUS45 KSLC 182106 AAA
TAFSLC
TAF AMD
KSLC 182106Z 1821/1924 18003KT P6SM VCSH FEW020 SCT030 SCT090
     FM182200 30005KT P6SM SCT030 SCT090
     FM190300 15005KT P6SM SCT080 SCT120=



000
FTUS45 KSLC 181720
TAFBCE
TAF
KBCE 181720Z 1818/1918 00000KT P6SM OVC090
     FM182000 30007KT P6SM SCT090=



000
FTUS45 KSLC 181720
TAFBCE
TAF
KBCE 181720Z 1818/1918 00000KT P6SM OVC090
     FM182000 30007KT P6SM SCT090=



000
FTUS45 KSLC 181720
TAFLGU
TAF
KLGU 181720Z 1818/1918 00000KT P6SM VCSH SCT040 BKN060
     FM181900 VRB03KT P6SM SCT060 BKN100
     FM182100 VRB03KT P6SM SCT080 SCT100=



000
FTUS45 KSLC 181720
TAFENV
TAF
KENV 181720Z 1818/1918 VRB04KT P6SM FEW080 SCT120
      AMD LTD TO CLD VIS AND WIND=



000
FTUS45 KSLC 181720
TAFOGD
TAF
KOGD 181720Z 1818/1918 17005KT P6SM VCSH SCT030 BKN080
     FM182000 27005KT P6SM SCT080 SCT120
     FM190300 17005KT P6SM SCT080 SCT120=



000
FTUS45 KSLC 181720
TAFENV
TAF
KENV 181720Z 1818/1918 VRB04KT P6SM FEW080 SCT120
      AMD LTD TO CLD VIS AND WIND=



000
FTUS45 KSLC 181720
TAFOGD
TAF
KOGD 181720Z 1818/1918 17005KT P6SM VCSH SCT030 BKN080
     FM182000 27005KT P6SM SCT080 SCT120
     FM190300 17005KT P6SM SCT080 SCT120=



000
FTUS45 KSLC 181720
TAFPVU
TAF
KPVU 181720Z 1818/1918 VRB04KT P6SM VCSH FEW020 BKN040
     FM182000 VRB04KT P6SM SCT080 SCT120
      AMD LTD TO CLD VIS AND WIND=



000
FTUS45 KSLC 181720
TAFSLC
TAF
KSLC 181720Z 1818/1924 18005KT P6SM VCSH SCT030 BKN090
     FM182000 30005KT P6SM SCT080 SCT120
     FM190300 15005KT P6SM SCT080 SCT120=



000
FTUS45 KSLC 181720
TAFPVU
TAF
KPVU 181720Z 1818/1918 VRB04KT P6SM VCSH FEW020 BKN040
     FM182000 VRB04KT P6SM SCT080 SCT120
      AMD LTD TO CLD VIS AND WIND=



000
FTUS45 KSLC 181720
TAFSLC
TAF
KSLC 181720Z 1818/1924 18005KT P6SM VCSH SCT030 BKN090
     FM182000 30005KT P6SM SCT080 SCT120
     FM190300 15005KT P6SM SCT080 SCT120=



000
FTUS45 KSLC 181720
TAFCDC
TAF
KCDC 181720Z 1818/1918 VRB04KT P6SM FEW060 FEW100=



000
FTUS45 KSLC 181720
TAFLGU
TAF
KLGU 181720Z 1818/1918 00000KT P6SM VCSH SCT040 BKN060
     FM181900 VRB03KT P6SM SCT060 BKN100
     FM182100 VRB03KT P6SM SCT080 SCT100=



000
FTUS45 KSLC 181720
TAFSGU
TAF
KSGU 181720Z 1818/1918 18005KT P6SM SCT050
     FM182000 VRB04KT P6SM FEW080
      AMD LTD TO CLD VIS AND WIND=



000
FTUS45 KSLC 181720
TAFCDC
TAF
KCDC 181720Z 1818/1918 VRB04KT P6SM FEW060 FEW100=



000
FTUS45 KSLC 181720
TAFSGU
TAF
KSGU 181720Z 1818/1918 18005KT P6SM SCT050
     FM182000 VRB04KT P6SM FEW080
      AMD LTD TO CLD VIS AND WIND=



000
FTUS45 KSLC 181616 AAC
TAFCDC
TAF AMD
KCDC 181616Z 1816/1912 VRB04KT P6SM SCT001 BKN025
      TEMPO 1816/1817 3/4SM BR BKN001
     FM181700 VRB04KT P6SM SCT040 BKN070
     FM190000 VRB03KT P6SM SCT070 SCT100=



000
FTUS45 KSLC 181616 AAC
TAFCDC
TAF AMD
KCDC 181616Z 1816/1912 VRB04KT P6SM SCT001 BKN025
      TEMPO 1816/1817 3/4SM BR BKN001
     FM181700 VRB04KT P6SM SCT040 BKN070
     FM190000 VRB03KT P6SM SCT070 SCT100=



000
FTUS45 KSLC 181501 AAB
TAFPVU
TAF AMD
KPVU 181501Z 1815/1912 VRB04KT P6SM VCSH FEW030 BKN040
      TEMPO 1815/1817 6SM -SHSN BKN014 OVC030
     FM181700 VRB04KT P6SM SCT040 BKN080
      AMD LTD TO CLD VIS AND WIND=



000
FTUS45 KSLC 181501 AAB
TAFPVU
TAF AMD
KPVU 181501Z 1815/1912 VRB04KT P6SM VCSH FEW030 BKN040
      TEMPO 1815/1817 6SM -SHSN BKN014 OVC030
     FM181700 VRB04KT P6SM SCT040 BKN080
      AMD LTD TO CLD VIS AND WIND=



000
FTUS45 KSLC 181458 AAC
TAFSLC
TAF AMD
KSLC 181458Z 1815/1918 14005KT P6SM BKN070
      TEMPO 1815/1817 6SM -SHSN SCT020 OVC035
     FM182000 30005KT P6SM SCT080 BKN120
     FM190300 15005KT P6SM SCT080 BKN200=



000
FTUS45 KSLC 181458 AAC
TAFSLC
TAF AMD
KSLC 181458Z 1815/1918 14005KT P6SM BKN070
      TEMPO 1815/1817 6SM -SHSN SCT020 OVC035
     FM182000 30005KT P6SM SCT080 BKN120
     FM190300 15005KT P6SM SCT080 BKN200=



000
FTUS45 KSLC 181353 AAB
TAFCDC
TAF AMD
KCDC 181353Z 1814/1912 VRB04KT P6SM SCT001 BKN025
      TEMPO 1814/1815 1SM BR BKN001
     FM181500 VRB04KT P6SM SCT040 BKN070
     FM190000 VRB03KT P6SM SCT070 SCT100=



000
FTUS45 KSLC 181353 AAB
TAFCDC
TAF AMD
KCDC 181353Z 1814/1912 VRB04KT P6SM SCT001 BKN025
      TEMPO 1814/1815 1SM BR BKN001
     FM181500 VRB04KT P6SM SCT040 BKN070
     FM190000 VRB03KT P6SM SCT070 SCT100=



000
FTUS45 KSLC 181353 AAB
TAFCDC
TAF AMD
KCDC 181353Z 1814/1912 VRB04KT P6SM SCT001 BKN025
      TEMPO 1814/1815 1SM BR BKN001
     FM181500 VRB04KT P6SM SCT040 BKN070
     FM190000 VRB03KT P6SM SCT070 SCT100=



000
FTUS45 KSLC 181233 AAA
TAFPVU
TAF AMD
KPVU 181233Z 1813/1912 VRB04KT P6SM FEW030 BKN040
     FM181700 VRB04KT P6SM SCT040 BKN080
      AMD LTD TO CLD VIS AND WIND=



000
FTUS45 KSLC 181233 AAA
TAFPVU
TAF AMD
KPVU 181233Z 1813/1912 VRB04KT P6SM FEW030 BKN040
     FM181700 VRB04KT P6SM SCT040 BKN080
      AMD LTD TO CLD VIS AND WIND=



000
FTUS45 KSLC 181233 AAA
TAFPVU
TAF AMD
KPVU 181233Z 1813/1912 VRB04KT P6SM FEW030 BKN040
     FM181700 VRB04KT P6SM SCT040 BKN080
      AMD LTD TO CLD VIS AND WIND=



000
FTUS45 KSLC 181233 AAA
TAFPVU
TAF AMD
KPVU 181233Z 1813/1912 VRB04KT P6SM FEW030 BKN040
     FM181700 VRB04KT P6SM SCT040 BKN080
      AMD LTD TO CLD VIS AND WIND=



000
FTUS45 KSLC 181229 AAB
TAFSLC
TAF AMD
KSLC 181229Z 1812/1918 14005KT P6SM BKN080
      TEMPO 1812/1814 28004KT 5SM BR BKN080
     FM182000 30005KT P6SM SCT080 BKN120
     FM190300 15005KT P6SM SCT080 BKN200=



000
FTUS45 KSLC 181229 AAB
TAFSLC
TAF AMD
KSLC 181229Z 1812/1918 14005KT P6SM BKN080
      TEMPO 1812/1814 28004KT 5SM BR BKN080
     FM182000 30005KT P6SM SCT080 BKN120
     FM190300 15005KT P6SM SCT080 BKN200=



000
FTUS45 KSLC 181229 AAB
TAFSLC
TAF AMD
KSLC 181229Z 1812/1918 14005KT P6SM BKN080
      TEMPO 1812/1814 28004KT 5SM BR BKN080
     FM182000 30005KT P6SM SCT080 BKN120
     FM190300 15005KT P6SM SCT080 BKN200=



000
FTUS45 KSLC 181229 AAB
TAFSLC
TAF AMD
KSLC 181229Z 1812/1918 14005KT P6SM BKN080
      TEMPO 1812/1814 28004KT 5SM BR BKN080
     FM182000 30005KT P6SM SCT080 BKN120
     FM190300 15005KT P6SM SCT080 BKN200=



    US Dept of Commerce
    National Oceanic and Atmospheric Administration
    National Weather Service
    1325 East West Highway
    Silver Spring, MD 20910
    Page Author: NWS Internet Services Team
Disclaimer
Information Quality
Credits
Glossary
Privacy Policy
Freedom of Information Act (FOIA)
About Us
Career Opportunities